createdAt,value
2024-04-15T00:00:15.446Z,97592.61
2024-04-15T00:03:07.047Z,97595.31
2024-04-15T00:05:35.525Z,97594.02
2024-04-15T00:08:04.529Z,97590.14
2024-04-15T00:10:33.306Z,97587.83
2024-04-15T00:13:01.895Z,97588.20
2024-04-15T00:15:30.731Z,97589.35
2024-04-15T00:17:59.658Z,97584.93
2024-04-15T00:20:30.837Z,97584.10
2024-04-15T00:22:59.938Z,97583.20
2024-04-15T00:25:28.633Z,97581.40
2024-04-15T00:27:57.933Z,97581.49
2024-04-15T00:30:27.482Z,97579.98
2024-04-15T00:32:56.742Z,97578.44
2024-04-15T00:35:28.942Z,97575.36
2024-04-15T00:38:00.211Z,97573.98
2024-04-15T00:40:31.748Z,97573.04
2024-04-15T00:43:00.363Z,97570.13
2024-04-15T00:45:31.383Z,97563.14
2024-04-15T00:48:03.277Z,97567.44
2024-04-15T00:50:41.366Z,97562.43
2024-04-15T00:53:13.683Z,97565.65
2024-04-15T00:55:42.936Z,97563.92
2024-04-15T00:58:12.910Z,97563.52
2024-04-15T01:00:41.692Z,97561.05
2024-04-15T01:03:11.078Z,97564.30
2024-04-15T01:05:40.337Z,97569.43
2024-04-15T01:08:08.935Z,97565.20
2024-04-15T01:13:10.005Z,97562.66
2024-04-15T01:15:39.079Z,97561.27
2024-04-15T01:18:07.570Z,97565.09
2024-04-15T01:20:36.493Z,97561.29
2024-04-15T01:23:09.724Z,97562.42
2024-04-15T01:25:37.953Z,97559.41
2024-04-15T01:28:06.521Z,97558.83
2024-04-15T01:30:34.646Z,97557.05
2024-04-15T01:33:03.432Z,97553.65
2024-04-15T01:35:31.880Z,97550.63
2024-04-15T01:38:03.688Z,97546.56
2024-04-15T01:40:32.053Z,97545.29
2024-04-15T01:43:00.438Z,97546.16
2024-04-15T01:45:28.784Z,97540.34
2024-04-15T01:47:57.616Z,97539.22
2024-04-15T01:50:26.897Z,97532.50
2024-04-15T01:52:56.447Z,97526.89
2024-04-15T01:55:26.852Z,97532.69
2024-04-15T01:57:55.319Z,97532.50
2024-04-15T02:00:23.782Z,97535.11
2024-04-15T02:02:52.093Z,97532.17
2024-04-15T02:05:20.602Z,97530.88
2024-04-15T02:07:49.843Z,97527.05
2024-04-15T02:10:18.401Z,97527.85
2024-04-15T02:12:48.537Z,97528.77
2024-04-15T02:15:16.976Z,97531.83
2024-04-15T02:17:45.322Z,97527.55
2024-04-15T02:20:13.793Z,97528.13
2024-04-15T02:22:41.866Z,97527.75
2024-04-15T02:25:10.026Z,97522.03
2024-04-15T02:27:38.156Z,97519.16
2024-04-15T02:30:08.746Z,97523.11
2024-04-15T02:32:37.313Z,97520.73
2024-04-15T02:35:06.911Z,97520.23
2024-04-15T02:37:36.196Z,97518.52
2024-04-15T02:40:05.891Z,97512.48
2024-04-15T02:42:34.724Z,97506.34
2024-04-15T02:45:02.878Z,97505.64
2024-04-15T02:47:32.039Z,97509.04
2024-04-15T02:50:00.475Z,97509.89
2024-04-15T02:52:28.736Z,97508.52
2024-04-15T02:54:57.176Z,97505.09
2024-04-15T02:57:25.602Z,97506.17
2024-04-15T02:59:53.870Z,97507.90
2024-04-15T03:02:22.397Z,97507.15
2024-04-15T03:04:51.113Z,97504.78
2024-04-15T03:07:19.638Z,97499.84
2024-04-15T03:09:48.382Z,97501.30
2024-04-15T03:12:17.473Z,97502.02
2024-04-15T03:14:45.877Z,97501.92
2024-04-15T03:17:14.352Z,97498.04
2024-04-15T03:19:42.669Z,97499.38
2024-04-15T03:22:11.538Z,97492.66
2024-04-15T03:24:39.731Z,97496.11
2024-04-15T03:27:08.121Z,97494.30
2024-04-15T03:29:36.305Z,97492.96
2024-04-15T03:32:04.814Z,97493.39
2024-04-15T03:34:33.432Z,97493.59
2024-04-15T03:37:01.870Z,97493.60
2024-04-15T03:39:30.570Z,97496.45
2024-04-15T03:41:59.048Z,97495.07
2024-04-15T03:44:27.300Z,97492.65
2024-04-15T03:46:55.592Z,97492.38
2024-04-15T03:49:24.525Z,97489.10
2024-04-15T03:51:53.548Z,97489.65
2024-04-15T03:54:22.196Z,97488.02
2024-04-15T03:56:50.436Z,97485.67
2024-04-15T03:59:20.448Z,97486.19
2024-04-15T04:01:48.725Z,97487.96
2024-04-15T04:04:17.167Z,97482.59
2024-04-15T04:06:45.664Z,97480.36
2024-04-15T04:09:14.809Z,97480.60
2024-04-15T04:11:43.360Z,97478.81
2024-04-15T04:14:11.698Z,97472.73
2024-04-15T04:16:40.092Z,97470.13
2024-04-15T04:19:08.706Z,97465.31
2024-04-15T04:21:37.794Z,97460.48
2024-04-15T04:24:07.084Z,97456.41
2024-04-15T04:26:36.123Z,97459.24
2024-04-15T04:29:05.608Z,97457.79
2024-04-15T04:31:34.679Z,97454.14
2024-04-15T04:34:06.303Z,97452.95
2024-04-15T04:36:34.767Z,97449.09
2024-04-15T04:39:03.481Z,97447.95
2024-04-15T04:41:32.919Z,97446.56
2024-04-15T04:44:01.111Z,97447.27
2024-04-15T04:46:29.370Z,97451.35
2024-04-15T04:48:58.284Z,97450.98
2024-04-15T04:51:27.009Z,97439.77
2024-04-15T04:53:55.500Z,97437.98
2024-04-15T04:56:24.073Z,97433.14
2024-04-15T04:58:52.290Z,97427.08
2024-04-15T05:01:20.848Z,97425.20
2024-04-15T05:03:51.442Z,97425.66
2024-04-15T05:06:19.976Z,97423.13
2024-04-15T05:08:48.415Z,97424.48
2024-04-15T05:11:17.743Z,97426.99
2024-04-15T05:13:45.750Z,97425.65
2024-04-15T05:16:15.226Z,97421.03
2024-04-15T05:18:45.310Z,97417.30
2024-04-15T05:21:17.946Z,97412.95
2024-04-15T05:23:48.826Z,97414.69
2024-04-15T05:26:17.321Z,97414.56
2024-04-15T05:28:46.586Z,97414.98
2024-04-15T05:31:18.346Z,97408.77
2024-04-15T05:33:47.859Z,97406.92
2024-04-15T05:36:16.392Z,97400.11
2024-04-15T05:38:45.148Z,97398.27
2024-04-15T05:41:15.024Z,97394.81
2024-04-15T05:43:43.660Z,97398.02
2024-04-15T05:46:13.448Z,97388.33
2024-04-15T05:48:42.610Z,97385.52
2024-04-15T05:51:13.993Z,97383.46
2024-04-15T05:53:42.758Z,97378.61
2024-04-15T05:56:12.350Z,97375.52
2024-04-15T05:58:41.214Z,97378.13
2024-04-15T06:01:10.001Z,97378.17
2024-04-15T06:03:38.889Z,97381.66
2024-04-15T06:06:07.131Z,97377.79
2024-04-15T06:08:35.527Z,97373.72
2024-04-15T06:11:04.055Z,97368.26
2024-04-15T06:13:32.332Z,97362.20
2024-04-15T06:16:01.146Z,97361.65
2024-04-15T06:18:29.638Z,97359.00
2024-04-15T06:20:58.428Z,97364.70
2024-04-15T06:23:27.485Z,97360.83
2024-04-15T06:25:55.989Z,97361.40
2024-04-15T06:28:24.951Z,97356.55
2024-04-15T06:30:53.671Z,97348.14
2024-04-15T06:33:22.539Z,97343.96
2024-04-15T06:35:51.477Z,97339.23
2024-04-15T06:38:19.628Z,97341.98
2024-04-15T06:40:48.020Z,97336.55
2024-04-15T06:43:16.569Z,97331.92
2024-04-15T06:45:46.080Z,97327.68
2024-04-15T06:48:17.104Z,97316.51
2024-04-15T06:50:46.762Z,97317.47
2024-04-15T06:53:15.582Z,97314.59
2024-04-15T06:55:44.823Z,97305.95
2024-04-15T06:58:14.505Z,97300.36
2024-04-15T07:00:43.465Z,97300.22
2024-04-15T07:03:12.511Z,97295.20
2024-04-15T07:05:41.322Z,97298.10
2024-04-15T07:08:09.869Z,97299.11
2024-04-15T07:10:39.716Z,97302.06
2024-04-15T07:13:13.795Z,97287.19
2024-04-15T07:15:43.203Z,97291.55
2024-04-15T07:18:12.987Z,97295.56
2024-04-15T07:20:42.548Z,97286.69
2024-04-15T07:23:12.505Z,97290.10
2024-04-15T07:25:41.513Z,97286.92
2024-04-15T07:28:10.518Z,97277.27
2024-04-15T07:30:39.649Z,97275.14
2024-04-15T07:33:08.941Z,97275.79
2024-04-15T07:35:38.722Z,97277.20
2024-04-15T07:38:08.670Z,97269.33
2024-04-15T07:40:37.548Z,97264.41
2024-04-15T07:43:06.195Z,97270.39
2024-04-15T07:45:36.679Z,97272.80
2024-04-15T07:48:07.552Z,97269.75
2024-04-15T07:50:37.350Z,97260.29
2024-04-15T07:53:07.771Z,97258.05
2024-04-15T07:55:37.065Z,97258.96
2024-04-15T07:58:06.164Z,97253.97
2024-04-15T08:00:35.280Z,97248.95
2024-04-15T08:03:05.053Z,97246.91
2024-04-15T08:05:33.978Z,97238.23
2024-04-15T08:08:02.940Z,97234.95
2024-04-15T08:10:34.267Z,97238.33
2024-04-15T08:13:06.091Z,97239.10
2024-04-15T08:15:34.826Z,97233.29
2024-04-15T08:18:04.890Z,97236.02
2024-04-15T08:20:33.499Z,97229.34
2024-04-15T08:23:02.750Z,97223.91
2024-04-15T08:25:31.469Z,97223.70
2024-04-15T08:28:00.798Z,97224.69
2024-04-15T08:30:31.561Z,97222.69
2024-04-15T08:33:07.231Z,97212.58
2024-04-15T08:35:42.915Z,97206.73
2024-04-15T08:38:13.482Z,97196.38
2024-04-15T08:41:03.150Z,97194.75
2024-04-15T08:43:32.409Z,97198.44
2024-04-15T08:46:04.634Z,97199.20
2024-04-15T08:48:34.574Z,97189.79
2024-04-15T08:51:05.362Z,97187.04
2024-04-15T08:53:34.961Z,97181.12
2024-04-15T08:56:07.783Z,97176.02
2024-04-15T08:58:37.391Z,97175.09
2024-04-15T09:01:11.690Z,97169.11
2024-04-15T09:03:40.759Z,97167.39
2024-04-15T09:06:10.134Z,97166.10
2024-04-15T09:08:38.764Z,97160.39
2024-04-15T09:11:08.878Z,97162.45
2024-04-15T09:13:39.837Z,97153.90
2024-04-15T09:16:11.859Z,97146.55
2024-04-15T09:18:41.217Z,97142.31
2024-04-15T09:21:10.942Z,97136.41
2024-04-15T09:23:41.810Z,97134.89
2024-04-15T09:26:10.576Z,97132.77
2024-04-15T09:28:39.946Z,97123.93
2024-04-15T09:31:08.962Z,97118.85
2024-04-15T09:33:37.963Z,97113.52
2024-04-15T09:36:06.678Z,97107.64
2024-04-15T09:38:39.832Z,97105.36
2024-04-15T09:41:12.675Z,97110.55
2024-04-15T09:43:42.563Z,97106.60
2024-04-15T09:46:14.182Z,97097.74
2024-04-15T09:48:45.358Z,97097.97
2024-04-15T09:51:24.468Z,97096.31
2024-04-15T09:53:54.822Z,97085.98
2024-04-15T09:56:25.892Z,97076.19
2024-04-15T09:58:57.255Z,97066.21
2024-04-15T10:01:33.668Z,97056.91
2024-04-15T10:04:08.272Z,97051.30
2024-04-15T10:06:48.904Z,97047.87
2024-04-15T10:09:19.910Z,97044.00
2024-04-15T10:11:51.553Z,97040.05
2024-04-15T10:14:21.151Z,97029.77
2024-04-15T10:16:50.463Z,97026.86
2024-04-15T10:19:48.157Z,97023.79
2024-04-15T10:22:17.988Z,97020.48
2024-04-15T10:24:46.552Z,97017.45
2024-04-15T10:27:15.000Z,97013.83
2024-04-15T10:29:44.527Z,97003.02
2024-04-15T10:32:15.399Z,96997.91
2024-04-15T10:34:44.339Z,96995.45
2024-04-15T10:37:13.530Z,96992.45
2024-04-15T10:39:49.187Z,96982.28
2024-04-15T10:42:19.600Z,96973.90
2024-04-15T10:44:52.810Z,96964.11
2024-04-15T10:47:23.058Z,96959.61
2024-04-15T10:49:52.506Z,96952.64
2024-04-15T10:52:22.170Z,96943.77
2024-04-15T10:54:51.117Z,96935.82
2024-04-15T10:57:19.955Z,96928.52
2024-04-15T10:59:54.049Z,96926.63
2024-04-15T11:02:24.248Z,96916.75
2024-04-15T11:04:53.299Z,96912.73
2024-04-15T11:07:22.688Z,96907.52
2024-04-15T11:09:51.678Z,96895.48
2024-04-15T11:12:20.621Z,96894.17
2024-04-15T11:14:56.557Z,96885.73
2024-04-15T11:17:26.582Z,96875.17
2024-04-15T11:20:01.211Z,96874.89
2024-04-15T11:25:02.938Z,96862.16
2024-04-15T11:27:34.804Z,96868.70
2024-04-15T11:30:06.013Z,96865.16
2024-04-15T11:32:35.217Z,96853.20
2024-04-15T11:35:08.322Z,96843.28
2024-04-15T11:37:37.402Z,96835.64
2024-04-15T11:40:11.157Z,96835.73
2024-04-15T11:42:43.108Z,96831.16
2024-04-15T11:45:15.540Z,96829.32
2024-04-15T11:47:44.365Z,96830.27
2024-04-15T11:50:14.277Z,96830.98
2024-04-15T11:52:43.209Z,96822.45
2024-04-15T11:55:17.933Z,96816.58
2024-04-15T11:57:49.340Z,96820.38
2024-04-15T12:00:19.186Z,96800.96
2024-04-15T12:02:50.282Z,96791.83
2024-04-15T12:05:19.422Z,96787.54
2024-04-15T12:07:48.776Z,96786.23
2024-04-15T12:10:17.689Z,96779.02
2024-04-15T12:12:49.400Z,96770.54
2024-04-15T12:15:18.565Z,96760.52
2024-04-15T12:17:48.748Z,96766.09
2024-04-15T12:20:20.403Z,96757.68
2024-04-15T12:22:49.433Z,96750.68
2024-04-15T12:25:19.442Z,96755.25
2024-04-15T12:27:49.199Z,96752.66
2024-04-15T12:30:19.023Z,96752.92
2024-04-15T12:32:48.067Z,96743.40
2024-04-15T12:35:17.829Z,96738.05
2024-04-15T12:37:46.542Z,96738.00
2024-04-15T12:40:15.879Z,96734.70
2024-04-15T12:42:44.937Z,96724.44
2024-04-15T12:45:13.388Z,96728.08
2024-04-15T12:47:42.230Z,96716.73
2024-04-15T12:50:10.895Z,96719.84
2024-04-15T12:52:39.552Z,96715.31
2024-04-15T12:55:10.394Z,96711.65
2024-04-15T12:57:39.427Z,96702.58
2024-04-15T13:00:10.310Z,96697.16
2024-04-15T13:02:41.227Z,96693.37
2024-04-15T13:05:11.403Z,96680.39
2024-04-15T13:07:40.263Z,96677.71
2024-04-15T13:10:09.939Z,96675.48
2024-04-15T13:12:38.503Z,96677.59
2024-04-15T13:15:07.389Z,96676.27
2024-04-15T13:17:36.121Z,96671.98
2024-04-15T13:20:05.786Z,96670.87
2024-04-15T13:22:35.191Z,96672.54
2024-04-15T13:25:04.876Z,96666.42
2024-04-15T13:27:34.102Z,96660.72
2024-04-15T13:30:04.210Z,96654.54
2024-04-15T13:32:34.389Z,96651.06
2024-04-15T13:35:03.803Z,96654.55
2024-04-15T13:37:32.583Z,96648.41
2024-04-15T13:40:01.270Z,96641.85
2024-04-15T13:42:30.432Z,96641.91
2024-04-15T13:44:59.377Z,96641.82
2024-04-15T13:47:27.569Z,96635.75
2024-04-15T13:49:55.941Z,96632.36
2024-04-15T13:52:25.147Z,96627.23
2024-04-15T13:54:53.775Z,96628.70
2024-04-15T13:57:24.223Z,96627.42
2024-04-15T13:59:53.229Z,96622.20
2024-04-15T14:02:23.768Z,96620.57
2024-04-15T14:04:54.111Z,96626.52
2024-04-15T14:07:24.068Z,96626.14
2024-04-15T14:09:53.547Z,96627.13
2024-04-15T14:12:25.363Z,96623.73
2024-04-15T14:14:54.177Z,96619.87
2024-04-15T14:17:23.954Z,96619.02
2024-04-15T14:19:56.671Z,96623.95
2024-04-15T14:22:27.360Z,96623.81
2024-04-15T14:24:56.414Z,96623.80
2024-04-15T14:27:25.889Z,96617.81
2024-04-15T14:29:54.560Z,96616.65
2024-04-15T14:32:23.485Z,96616.58
2024-04-15T14:37:20.556Z,96613.65
2024-04-15T14:39:54.908Z,96621.25
2024-04-15T14:42:28.793Z,96619.33
2024-04-15T14:44:59.066Z,96613.51
2024-04-15T14:47:27.653Z,96614.38
2024-04-15T14:49:56.739Z,96612.96
2024-04-15T14:52:25.128Z,96611.19
2024-04-15T14:54:53.768Z,96611.83
2024-04-15T14:57:22.387Z,96614.75
2024-04-15T14:59:53.813Z,96613.60
2024-04-15T15:02:22.770Z,96609.66
2024-04-15T15:04:52.775Z,96615.08
2024-04-15T15:07:22.896Z,96610.39
2024-04-15T15:09:51.909Z,96612.73
2024-04-15T15:12:21.049Z,96610.14
2024-04-15T15:14:53.173Z,96624.52
2024-04-15T15:17:22.031Z,96625.69
2024-04-15T15:19:53.377Z,96622.20
2024-04-15T15:22:22.116Z,96618.99
2024-04-15T15:24:50.659Z,96616.60
2024-04-15T15:27:19.445Z,96616.41
2024-04-15T15:29:47.811Z,96614.14
2024-04-15T15:32:16.904Z,96622.23
2024-04-15T15:34:46.204Z,96617.89
2024-04-15T15:37:15.706Z,96620.34
2024-04-15T15:39:44.443Z,96621.33
2024-04-15T15:42:13.292Z,96620.23
2024-04-15T15:44:42.128Z,96612.81
2024-04-15T15:47:11.154Z,96609.10
2024-04-15T15:49:40.326Z,96612.40
2024-04-15T15:52:11.467Z,96610.98
2024-04-15T15:54:40.169Z,96611.06
2024-04-15T15:57:09.986Z,96607.71
2024-04-15T15:59:39.209Z,96605.02
2024-04-15T16:02:08.479Z,96600.98
2024-04-15T16:04:38.502Z,96607.00
2024-04-15T16:07:08.480Z,96605.09
2024-04-15T16:09:38.006Z,96603.30
2024-04-15T16:12:07.973Z,96596.99
2024-04-15T16:14:36.424Z,96596.05
2024-04-15T16:17:05.174Z,96600.61
2024-04-15T16:19:33.650Z,96594.09
2024-04-15T16:22:01.851Z,96593.69
2024-04-15T16:24:30.343Z,96591.95
2024-04-15T16:26:59.140Z,96589.32
2024-04-15T16:29:27.562Z,96595.56
2024-04-15T16:31:56.272Z,96590.25
2024-04-15T16:34:25.093Z,96588.56
2024-04-15T16:36:53.441Z,96591.48
2024-04-15T16:39:21.648Z,96587.23
2024-04-15T16:41:49.956Z,96585.11
2024-04-15T16:44:18.665Z,96578.70
2024-04-15T16:46:47.745Z,96575.88
2024-04-15T16:49:16.510Z,96571.59
2024-04-15T16:51:45.379Z,96575.13
2024-04-15T16:54:14.367Z,96573.36
2024-04-15T16:56:43.622Z,96569.10
2024-04-15T16:59:12.220Z,96566.72
2024-04-15T17:01:40.937Z,96560.66
2024-04-15T17:04:09.510Z,96559.73
2024-04-15T17:06:37.991Z,96555.66
2024-04-15T17:09:06.872Z,96559.30
2024-04-15T17:11:35.871Z,96557.77
2024-04-15T17:14:04.374Z,96559.55
2024-04-15T17:16:33.379Z,96554.68
2024-04-15T17:19:02.345Z,96551.53
2024-04-15T17:21:31.210Z,96549.81
2024-04-15T17:23:59.911Z,96551.22
2024-04-15T17:26:28.358Z,96548.59
2024-04-15T17:28:57.399Z,96544.52
2024-04-15T17:31:27.419Z,96546.98
2024-04-15T17:33:56.646Z,96546.67
2024-04-15T17:36:25.999Z,96543.56
2024-04-15T17:38:55.650Z,96542.48
2024-04-15T17:41:24.854Z,96544.52
2024-04-15T17:43:53.151Z,96546.33
2024-04-15T17:46:21.493Z,96543.94
2024-04-15T17:48:51.822Z,96542.59
2024-04-15T17:51:21.224Z,96541.39
2024-04-15T17:53:49.549Z,96542.42
2024-04-15T17:56:17.969Z,96537.18
2024-04-15T17:58:47.240Z,96538.48
2024-04-15T18:01:17.034Z,96535.10
2024-04-15T18:03:45.916Z,96537.98
2024-04-15T18:06:14.834Z,96540.14
2024-04-15T18:08:42.952Z,96538.73
2024-04-15T18:11:11.892Z,96533.86
2024-04-15T18:13:40.455Z,96528.84
2024-04-15T18:16:09.731Z,96524.61
2024-04-15T18:18:38.678Z,96534.66
2024-04-15T18:21:06.826Z,96533.58
2024-04-15T18:23:35.282Z,96529.33
2024-04-15T18:26:05.954Z,96528.98
2024-04-15T18:28:36.197Z,96529.58
2024-04-15T18:31:05.106Z,96527.45
2024-04-15T18:33:33.810Z,96523.61
2024-04-15T18:36:02.259Z,96524.25
2024-04-15T18:38:30.909Z,96522.90
2024-04-15T18:40:59.240Z,96528.20
2024-04-15T18:43:27.725Z,96523.45
2024-04-15T18:45:57.397Z,96523.20
2024-04-15T18:48:25.591Z,96520.43
2024-04-15T18:50:54.026Z,96513.29
2024-04-15T18:53:22.542Z,96517.99
2024-04-15T18:55:51.130Z,96518.85
2024-04-15T18:58:19.848Z,96515.35
2024-04-15T19:00:48.689Z,96518.08
2024-04-15T19:03:17.487Z,96516.30
2024-04-15T19:05:46.003Z,96513.48
2024-04-15T19:08:16.351Z,96507.64
2024-04-15T19:10:44.947Z,96506.36
2024-04-15T19:13:13.235Z,96505.59
2024-04-15T19:15:41.913Z,96498.58
2024-04-15T19:18:10.503Z,96495.56
2024-04-15T19:20:38.714Z,96485.30
2024-04-15T19:23:07.160Z,96485.40
2024-04-15T19:25:35.526Z,96476.56
2024-04-15T19:28:05.282Z,96474.51
2024-04-15T19:30:34.212Z,96472.77
2024-04-15T19:33:04.798Z,96470.49
2024-04-15T19:35:33.747Z,96471.55
2024-04-15T19:38:03.663Z,96475.09
2024-04-15T19:40:32.187Z,96476.55
2024-04-15T19:43:03.969Z,96483.00
2024-04-15T19:45:33.049Z,96481.48
2024-04-15T19:48:02.650Z,96483.65
2024-04-15T19:50:32.508Z,96483.35
2024-04-15T19:53:00.875Z,96482.86
2024-04-15T19:55:29.720Z,96481.56
2024-04-15T19:57:59.602Z,96475.73
2024-04-15T20:00:29.353Z,96475.51
2024-04-15T20:02:57.878Z,96468.91
2024-04-15T20:05:26.650Z,96468.16
2024-04-15T20:07:58.503Z,96462.14
2024-04-15T20:10:32.498Z,96459.06
2024-04-15T20:13:01.278Z,96456.71
2024-04-15T20:15:30.108Z,96465.64
2024-04-15T20:18:10.613Z,96466.06
2024-04-15T20:20:45.698Z,96465.13
2024-04-15T20:23:15.505Z,96464.66
2024-04-15T20:25:44.994Z,96466.35
2024-04-15T20:28:15.335Z,96465.71
2024-04-15T20:30:45.595Z,96465.31
2024-04-15T20:33:18.059Z,96463.59
2024-04-15T20:35:47.424Z,96465.95
2024-04-15T20:38:16.778Z,96465.14
2024-04-15T20:40:46.275Z,96465.41
2024-04-15T20:43:15.265Z,96460.54
2024-04-15T20:45:49.531Z,96456.16
2024-04-15T20:48:19.222Z,96456.79
2024-04-15T20:50:48.180Z,96454.48
2024-04-15T20:53:16.831Z,96451.20
2024-04-15T20:55:45.249Z,96444.27
2024-04-15T20:58:14.028Z,96442.81
2024-04-15T21:00:44.645Z,96442.24
2024-04-15T21:03:13.946Z,96446.56
2024-04-15T21:05:42.503Z,96446.34
2024-04-15T21:08:11.176Z,96443.48
2024-04-15T21:10:39.626Z,96444.20
2024-04-15T21:13:09.029Z,96441.03
2024-04-15T21:15:38.390Z,96438.98
2024-04-15T21:18:07.202Z,96430.33
2024-04-15T21:20:36.192Z,96433.98
2024-04-15T21:23:04.726Z,96428.59
2024-04-15T21:25:33.369Z,96425.16
2024-04-15T21:28:02.280Z,96425.92
2024-04-15T21:30:30.856Z,96425.09
2024-04-15T21:33:01.628Z,96421.31
2024-04-15T21:35:30.143Z,96418.28
2024-04-15T21:38:00.080Z,96420.14
2024-04-15T21:40:28.373Z,96417.48
2024-04-15T21:42:56.978Z,96420.55
2024-04-15T21:45:27.238Z,96419.80
2024-04-15T21:47:55.445Z,96416.04
2024-04-15T21:50:24.677Z,96411.66
2024-04-15T21:52:52.959Z,96410.56
2024-04-15T21:55:21.382Z,96413.03
2024-04-15T21:57:50.131Z,96414.73
2024-04-15T22:00:19.718Z,96419.51
2024-04-15T22:02:48.488Z,96418.27
2024-04-15T22:05:17.096Z,96419.40
2024-04-15T22:07:48.304Z,96416.91
2024-04-15T22:10:17.023Z,96417.50
2024-04-15T22:12:45.915Z,96412.66
2024-04-15T22:15:14.670Z,96410.48
2024-04-15T22:17:43.075Z,96414.52
2024-04-15T22:20:11.715Z,96413.96
2024-04-15T22:22:40.281Z,96407.23
2024-04-15T22:25:08.842Z,96407.14
2024-04-15T22:27:37.517Z,96408.85
2024-04-15T22:30:06.632Z,96414.49
2024-04-15T22:32:37.097Z,96405.22
2024-04-15T22:35:06.279Z,96398.73
2024-04-15T22:37:35.055Z,96404.05
2024-04-15T22:40:04.794Z,96403.46
2024-04-15T22:42:33.273Z,96414.19
2024-04-15T22:45:01.937Z,96402.04
2024-04-15T22:47:31.579Z,96403.73
2024-04-15T22:50:00.562Z,96403.19
2024-04-15T22:52:29.336Z,96405.40
2024-04-15T22:54:57.870Z,96406.72
2024-04-15T22:57:27.202Z,96405.79
2024-04-15T22:59:56.624Z,96403.52
2024-04-15T23:02:25.327Z,96398.24
2024-04-15T23:04:54.669Z,96394.05
2024-04-15T23:07:23.227Z,96390.86
2024-04-15T23:09:52.623Z,96389.90
2024-04-15T23:12:20.906Z,96385.73
2024-04-15T23:14:49.701Z,96382.17
2024-04-15T23:17:18.651Z,96377.70
2024-04-15T23:19:47.120Z,96376.19
2024-04-15T23:22:17.205Z,96373.88
2024-04-15T23:24:49.499Z,96367.23
2024-04-15T23:27:18.408Z,96366.23
2024-04-15T23:29:47.085Z,96368.19
2024-04-15T23:32:16.171Z,96370.10
2024-04-15T23:34:44.756Z,96373.09
2024-04-15T23:37:14.379Z,96373.33
2024-04-15T23:39:43.182Z,96369.43
2024-04-15T23:42:12.940Z,96366.29
2024-04-15T23:44:43.257Z,96382.17
2024-04-15T23:47:30.787Z,96395.52
2024-04-15T23:50:18.938Z,96400.30
2024-04-15T23:53:06.977Z,96400.21
2024-04-15T23:55:54.003Z,96399.39
2024-04-15T23:58:25.665Z,96403.94
